Terminal Aerodrome Forecast
Issued by NWS Sterling, VA

Current Version | Previous Version | Graphics & Text | Print | Product List | Glossary On
Versions: 1 2 3 4 5 6 7 8 9 10 11 12 13 14 15 16
000
FTUS41 KLWX 300534
TAFMRB
TAF
KMRB 300534Z 3006/3106 19005KT 6SM BR SCT080
     FM300800 22005KT 5SM BR SCT080
     FM301200 00000KT P6SM FEW200
     FM302200 20005KT P6SM BKN050=

USA.gov is the U.S. government's official web portal to all federal, state and local government web resources and services.